Needa, Texas
Current Conditions -  °F | °C
As of 5:15 PM on Tuesday 25 Nov 2014 (Local Time) from KT20 Reporting Station
Clear Clear  
Wind Chill: 63°   Ceiling: Unl
Heat Index: 63°   Visibility: 10mi
Dew Point: 30°   Wind: 5mph
Humidity: 29%   Direction: 220°SW
Pressure: 30.22"   Gusts: NA
Location:  29.4298°N, 97.5714°W
Report Text: KT20 252315Z AUTO 22004KT 10SM CLR 17/M01 A3022 RMK AO2 T01741010
Loading
Personal Weather Stations






























Interactive Weather Map New forecast layout! Learn more

10-Day Weather Forecast

Advertisements
Track Severe Weather on mobile